Station: Rottnest Island  

  Atmospheric Gas Attenuation - ITU Rec 676-11   ----------------- dB/100km -----------------
Date Time Temp RH % AH g/m3 Dew Point Wind Direction Speed kph Gust kph Barometer mB Rainfall Since 9am 24GHz 47GHz 76GHz 122GHz 134GHz 241GHz
07/05 20:40 19 46 7.5 7.1 20 28 1027.9 0 17.0 23.3 33.8 88.4 79.8 273.8
07/05 20:30 19.2 46 7.58 7.3 22 35 1027.8 0 17.2 23.4 34.0 89.0 80.6 276.5
07/05 20:20 19.2 46 7.58 7.3 22 28 1027.7 0 17.2 23.4 34.0 89.0 80.5 276.5
07/05 20:10 19.3 46 7.63 7.4 20 26 1027.7 0 17.3 23.4 34.2 89.3 81.0 278.2
07/05 20:00 19.4 47 7.84 7.8 20 32 1027.7 0 17.7 23.7 34.9 91.3 83.5 286.7
07/05 19:50 19.5 46 7.72 7.6 22 28 1027.6 0 17.5 23.5 34.4 90.0 81.9 281.3
07/05 19:40 19.6 46 7.76 7.7 20 28 1027.6 0 17.5 23.5 34.5 90.2 82.3 282.6
07/05 19:30 19.5 50 8.39 8.8 20 32 1027.6 0 18.9 24.5 36.9 96.5 90.0 309.7
07/05 19:20 19.5 49 8.22 8.5 22 28 1027.6 0 18.5 24.2 36.3 94.9 87.9 302.4
07/05 19:10 19.8 49 8.37 8.8 19 24 1027.5 0 18.8 24.4 36.7 96.0 89.4 307.7
07/05 19:00 19.7 50 8.49 9 19 26 1027.4 0 19.1 24.6 37.2 97.3 91.0 313.2
07/05 18:50 19.9 48 8.25 8.6 19 20 1027.3 0 18.5 24.2 36.2 94.7 87.8 302.1
07/05 18:40 19.8 48 8.2 8.5 20 24 1027.2 0 18.4 24.1 36.0 94.3 87.3 300.4
07/05 18:30 20.1 47 8.17 8.4 20 28 1027.1 0 18.4 24.0 35.8 93.6 86.6 297.9
07/05 18:20 20.1 48 8.34 8.8 22 30 1027.1 0 18.7 24.2 36.4 95.3 88.7 305.2
07/05 18:10 20.1 47 8.17 8.4 22 30 1027 0 18.4 24.0 35.8 93.6 86.6 297.9
07/05 18:00 20.1 47 8.17 8.4 20 28 1026.9 0 18.4 24.0 35.8 93.6 86.6 297.9
07/05 17:50 20.1 49 8.52 9.1 17 20 1027 0 19.1 24.5 37.1 97.1 90.9 312.8
07/05 17:40 20.1 48 8.34 8.8 17 22 1027 0 18.7 24.2 36.4 95.3 88.7 305.1
07/05 17:30 20.4 45 7.96 8.1 20 26 1026.9 0 17.9 23.6 34.9 91.2 83.8 288.0
07/05 17:20 20.3 46 8.09 8.3 17 22 1026.9 0 18.2 23.8 35.4 92.6 85.4 293.8
07/05 17:10 20.6 46 8.23 8.6 17 19 1026.9 0 18.5 23.9 35.8 93.6 86.8 298.6
07/05 17:00 20.6 45 8.05 8.3 15 20 1026.9 0 18.1 23.7 35.1 91.9 84.7 291.0
07/05 16:50 20.7 47 8.46 9 11 15 1026.9 0 19.0 24.3 36.6 95.7 89.5 307.9
07/05 16:40 20.6 51 9.13 10.1 13 19 1027 0 20.4 25.3 39.1 102.5 97.8 337.0
07/05 16:30 20.6 50 8.95 9.8 13 17 1027 0 20.0 25.0 38.4 100.7 95.6 329.3
07/05 16:20 20.5 53 9.43 10.6 15 17 1027.1 0 21.0 25.8 40.3 105.7 101.6 350.6
07/05 16:10 20.5 51 9.07 10 17 19 1027.1 0 20.2 25.2 38.9 102.1 97.2 334.9
07/05 16:00 20.5 52 9.25 10.3 15 20 1027.2 0 20.6 25.5 39.6 103.9 99.4 342.7
07/05 15:50 20.6 51 9.13 10.1 13 17 1027.1 0 20.4 25.3 39.1 102.5 97.8 337.1
07/05 15:40 20.5 51 9.07 10 15 17 1027.2 0 20.2 25.2 38.9 102.1 97.2 334.9
07/05 15:30 20.5 52 9.25 10.3 17 22 1027.2 0 20.6 25.5 39.6 103.9 99.4 342.7
07/05 15:20 20.4 52 9.2 10.2 20 22 1027.3 0 20.5 25.5 39.5 103.5 98.9 341.0
07/05 15:10 20.3 50 8.79 9.5 20 24 1027.3 0 19.7 24.9 38.0 99.5 94.0 323.7
07/05 15:00 20.4 50 8.84 9.6 19 32 1027.3 0 19.8 24.9 38.1 99.9 94.5 325.4
07/05 14:50 20.6 51 9.13 10.1 19 22 1027.3 0 20.4 25.3 39.1 102.5 97.8 337.1
07/05 14:40 21.1 47 8.66 9.4 15 19 1027.5 0 19.4 24.5 37.1 97.3 91.5 315.0
07/05 14:30 20.7 43 7.74 7.7 17 30 1027.5 0 17.4 23.2 34.0 88.8 80.9 277.9
07/05 14:20 20.9 45 8.19 8.5 20 26 1027.7 0 18.4 23.8 35.5 93.0 86.1 296.0
07/05 14:10 20.9 44 8.01 8.2 22 26 1027.8 0 18.0 23.6 34.9 91.2 83.9 288.5
07/05 14:00 21 45 8.24 8.6 19 28 1027.9 0 18.5 23.9 35.7 93.3 86.6 297.8
07/05 13:50 20.7 47 8.46 9 15 20 1027.9 0 18.9 24.3 36.6 95.8 89.5 308.2
07/05 13:40 20.6 47 8.41 8.9 15 20 1028.1 0 18.8 24.3 36.5 95.5 89.1 306.5
07/05 13:30 20.6 48 8.59 9.2 17 26 1028.1 0 19.2 24.5 37.1 97.3 91.2 314.1
07/05 13:20 19.9 48 8.25 8.6 17 24 1028.2 0 18.5 24.2 36.2 94.7 87.9 302.4
07/05 13:10 20.5 48 8.54 9.1 15 19 1028.3 0 19.1 24.5 37.0 96.9 90.8 312.4
07/05 13:00 20.3 48 8.44 8.9 19 26 1028.4 0 18.9 24.4 36.7 96.2 89.8 309.0
07/05 12:50 20 48 8.29 8.7 22 26 1028.6 0 18.6 24.2 36.3 95.1 88.3 303.8
07/05 12:40 19.8 48 8.2 8.5 24 26 1028.7 0 18.4 24.2 36.1 94.4 87.4 300.7
07/05 12:30 20.1 48 8.34 8.8 20 30 1029.1 0 18.7 24.3 36.5 95.5 88.8 305.6
07/05 12:20 19.6 51 8.61 9.2 19 20 1029.3 0 19.3 24.9 37.7 98.8 92.7 319.2
07/05 12:10 20 50 8.64 9.3 15 20 1029.4 0 19.4 24.8 37.7 98.6 92.6 319.0
07/05 12:00 19.7 51 8.66 9.3 22 32 1029.6 0 19.4 24.9 37.9 99.2 93.3 321.1
07/05 11:50 19.5 51 8.56 9.1 22 24 1029.7 0 19.2 24.8 37.6 98.4 92.3 317.6
07/05 11:40 19.2 51 8.41 8.8 22 30 1029.9 0 18.9 24.7 37.2 97.3 90.8 312.3
07/05 11:30 19.1 52 8.52 9 26 39 1030 0 19.1 24.9 37.7 98.6 92.3 317.5
07/05 11:20 18.5 52 8.23 8.5 32 35 1030.1 0 18.6 24.6 36.8 96.4 89.4 307.3
07/05 11:10 19.1 54 8.85 9.6 19 24 1030.2 0 19.8 25.4 38.9 101.9 96.4 331.9
07/05 11:00 18.3 56 8.76 9.4 26 35 1030.4 0 19.7 25.5 39.0 102.0 96.2 331.4
07/05 10:50 18.6 57 9.07 9.9 19 26 1030.4 0 20.3 25.9 40.0 104.8 99.8 343.9
07/05 10:40 17.8 57 8.65 9.2 26 30 1030.4 0 19.5 25.5 38.8 101.5 95.5 328.5
07/05 10:30 17.7 57 8.6 9.1 24 32 1030.7 0 19.4 25.4 38.7 101.2 95.0 326.8
07/05 10:20 17.3 59 8.69 9.2 26 30 1030.7 0 19.6 25.7 39.2 102.6 96.6 332.5
07/05 10:10 16.8 59 8.43 8.8 24 28 1030.8 0 19.1 25.4 38.4 100.6 93.9 322.9
07/05 10:00 16.9 60 8.63 9.1 28 35 1031 0 19.5 25.7 39.2 102.6 96.4 331.5
07/05 09:50 16.6 61 8.62 9.1 24 39 1031 0 19.5 25.8 39.3 102.8 96.6 332.3
07/05 09:40 16.3 61 8.46 8.8 28 33 1031.1 0 19.2 25.6 38.8 101.6 94.9 326.4
07/05 09:30 16.2 60 8.27 8.4 24 32 1031.3 0 18.8 25.4 38.1 99.7 92.6 318.3
07/05 09:20 15.9 61 8.26 8.4 26 30 1031.3 0 18.7 25.4 38.2 100.0 92.8 319.1
07/05 09:10 15.9 63 8.53 8.9 19 22 1031.3 0 19.3 25.8 39.3 102.8 96.3 331.3
07/05 09:00 15.5 64 8.46 8.7 22 32 1031.4 0 19.2 25.9 39.2 102.6 95.9 329.8
07/05 08:50 15.1 65 8.39 8.6 22 26 1031.3 0 19.1 25.9 39.1 102.4 95.5 328.2
07/05 08:40 15 64 8.21 8.3 28 32 1031.2 0 18.7 25.6 38.4 100.6 93.3 320.4
07/05 08:30 14.8 65 8.23 8.3 24 33 1031.4 0 18.7 25.7 38.6 101.1 93.8 322.2
07/05 08:20 14.7 64 8.06 8 22 26 1031.3 0 18.4 25.4 38.0 99.4 91.7 314.8
07/05 08:10 14.6 65 8.13 8.1 30 32 1031.2 0 18.5 25.6 38.3 100.3 92.7 318.4
07/05 08:00 14.5 65 8.08 8 20 28 1031.3 0 18.4 25.5 38.2 99.9 92.2 316.5
07/05 07:50 14.3 66 8.11 8 19 24 1031.1 0 18.5 25.6 38.4 100.4 92.8 318.7
07/05 07:40 14.2 66 8.06 7.9 17 20 1031 0 18.4 25.6 38.2 100.0 92.2 316.8
07/05 07:30 14.1 66 8.01 7.9 22 30 1031.1 0 18.3 25.5 38.1 99.6 91.7 314.9
07/05 07:20 14 66 7.96 7.8 24 30 1030.9 0 18.2 25.5 37.9 99.2 91.2 313.0
07/05 07:10 14.1 65 7.89 7.6 20 24 1030.8 0 18.0 25.3 37.6 98.3 90.1 309.4
07/05 07:00 14.1 65 7.89 7.6 24 35 1030.8 0 18.0 25.3 37.6 98.3 90.1 309.4
07/05 06:50 14.1 65 7.89 7.6 28 30 1030.6 0 18.0 25.3 37.6 98.3 90.1 309.3
07/05 06:40 14.1 65 7.89 7.6 26 32 1030.4 0 18.0 25.3 37.6 98.3 90.1 309.3
07/05 06:30 14.2 66 8.06 7.9 24 33 1030.3 0 18.4 25.5 38.2 99.9 92.2 316.6
07/05 06:20 14.2 66 8.06 7.9 20 24 1030.2 0 18.4 25.5 38.2 99.9 92.2 316.5
07/05 06:10 14.4 66 8.16 8.1 24 26 1030.1 0 18.6 25.6 38.5 100.7 93.2 320.3
07/05 06:00 14.4 66 8.16 8.1 22 32 1030.1 0 18.6 25.6 38.5 100.7 93.2 320.3
07/05 05:50 14.6 64 8.01 7.9 22 24 1030 0 18.3 25.3 37.8 98.9 91.0 312.6
07/05 05:40 14.7 64 8.06 8 20 22 1029.9 0 18.4 25.4 37.9 99.3 91.6 314.5
07/05 05:30 14.6 65 8.13 8.1 22 37 1030 0 18.5 25.5 38.3 100.1 92.6 318.1
07/05 05:20 14.6 64 8.01 7.9 22 26 1029.9 0 18.3 25.3 37.8 98.9 91.0 312.6
07/05 05:10 14.6 64 8.01 7.9 17 20 1029.9 0 18.3 25.3 37.8 98.9 91.0 312.6
07/05 05:00 14.8 63 7.98 7.8 24 32 1029.9 0 18.2 25.2 37.6 98.3 90.4 310.5
07/05 04:50 14.8 63 7.98 7.8 20 26 1029.9 0 18.2 25.2 37.6 98.3 90.4 310.5
07/05 04:40 14.9 63 8.03 7.9 26 28 1029.8 0 18.3 25.3 37.7 98.7 90.9 312.3
07/05 04:30 14.9 62 7.9 7.7 24 35 1029.9 0 18.0 25.1 37.2 97.4 89.3 306.5
07/05 04:20 14.9 62 7.9 7.7 28 35 1029.7 0 18.0 25.1 37.2 97.3 89.3 306.4
07/05 04:10 14.9 62 7.9 7.7 22 26 1029.7 0 18.0 25.1 37.2 97.3 89.3 306.4

Last Refresh: 07-May-2026 22:19:16

Bureau of Meteorology